Time;durP1;ratioP1;P1;durP2;ratioP2;P2;SDS_P1;SDS_P2;PMS_P1;PMS_P2;Temp;Humidity;BMP_temperature;BMP_pressure;BME280_temperature;BME280_humidity;BME280_pressure;Samples;Min_cycle;Max_cycle;Signal;HPM_P1;HPM_P2
2023/12/02 00:01:16;;;;;;;5.38;4.85;;;15.60;44.40;;;;;;5109085;27;45327;-72
2023/12/02 00:03:43;;;;;;;4.68;4.10;;;15.50;44.40;;;;;;5108803;27;45322;-74
2023/12/02 00:06:10;;;;;;;4.45;4.05;;;15.50;44.50;;;;;;5109015;27;45388;-72
2023/12/02 00:08:37;;;;;;;5.63;4.38;;;15.50;44.70;;;;;;5109039;27;45438;-74
2023/12/02 00:11:04;;;;;;;5.32;4.57;;;15.50;44.80;;;;;;5109056;27;45408;-74
2023/12/02 00:13:31;;;;;;;5.28;4.78;;;15.50;44.90;;;;;;5108753;27;46319;-74
2023/12/02 00:15:59;;;;;;;5.97;4.50;;;15.40;44.90;;;;;;5108518;27;45322;-74
2023/12/02 00:18:26;;;;;;;4.97;4.43;;;15.40;45.00;;;;;;5108728;27;45528;-74
2023/12/02 00:20:53;;;;;;;4.55;4.15;;;15.40;45.00;;;;;;5109068;27;45393;-74
2023/12/02 00:23:19;;;;;;;4.90;4.40;;;15.40;45.00;;;;;;5108649;27;45314;-74
2023/12/02 00:25:45;;;;;;;4.30;3.60;;;15.30;45.00;;;;;;5108670;27;45328;-74
2023/12/02 00:28:12;;;;;;;5.20;4.30;;;15.30;45.10;;;;;;5108849;27;45249;-74
2023/12/02 00:30:39;;;;;;;6.25;3.97;;;15.30;45.60;;;;;;5108654;27;45419;-74
2023/12/02 00:33:07;;;;;;;4.88;3.65;;;15.30;45.10;;;;;;5108207;27;46397;-74
2023/12/02 00:35:34;;;;;;;4.45;4.05;;;15.30;45.70;;;;;;5107491;27;45171;-74
2023/12/02 00:38:01;;;;;;;4.43;3.67;;;15.20;45.00;;;;;;5108279;27;45259;-74
2023/12/02 00:40:28;;;;;;;4.68;3.95;;;15.20;45.10;;;;;;5108468;27;45311;-74
2023/12/02 00:42:54;;;;;;;5.07;3.60;;;15.20;45.10;;;;;;5108248;27;46406;-74
2023/12/02 00:45:21;;;;;;;4.60;3.67;;;15.20;45.10;;;;;;5108525;27;45351;-74
2023/12/02 00:47:48;;;;;;;4.60;4.20;;;15.10;45.10;;;;;;5108267;27;45289;-74
2023/12/02 00:50:16;;;;;;;5.07;4.60;;;15.10;45.10;;;;;;5108371;27;45486;-74
2023/12/02 00:52:43;;;;;;;5.38;4.78;;;15.10;45.20;;;;;;5108060;27;46376;-74
2023/12/02 00:55:10;;;;;;;4.68;4.15;;;15.10;45.80;;;;;;5108106;27;45263;-74
2023/12/02 00:57:37;;;;;;;4.50;3.85;;;15.00;45.20;;;;;;5107944;27;45433;-74
2023/12/02 01:00:05;;;;;;;4.60;4.15;;;15.00;45.20;;;;;;5108137;27;45431;-74
2023/12/02 01:02:31;;;;;;;5.10;4.60;;;15.00;45.20;;;;;;5107876;27;46781;-74
2023/12/02 01:04:58;;;;;;;4.35;3.95;;;15.00;45.30;;;;;;5107888;27;45367;-74
2023/12/02 01:07:26;;;;;;;5.13;4.63;;;14.90;45.20;;;;;;5108024;27;45308;-74
2023/12/02 01:09:53;;;;;;;5.47;4.65;;;14.90;45.30;;;;;;5107421;27;45470;-74
2023/12/02 01:12:20;;;;;;;4.93;4.28;;;14.90;45.30;;;;;;5107274;27;46797;-74
2023/12/02 01:14:47;;;;;;;4.85;4.35;;;14.90;45.40;;;;;;5107876;27;45260;-74
2023/12/02 01:17:14;;;;;;;4.95;4.47;;;14.80;45.30;;;;;;5107729;27;45323;-75
2023/12/02 01:19:40;;;;;;;5.40;4.53;;;14.80;45.40;;;;;;5107077;27;45379;-74
2023/12/02 01:22:07;;;;;;;5.45;4.60;;;14.80;45.40;;;;;;5107528;27;46420;-75
2023/12/02 01:24:35;;;;;;;4.70;4.22;;;14.80;45.40;;;;;;5107592;27;45340;-74
2023/12/02 01:27:02;;;;;;;5.53;4.78;;;14.80;45.40;;;;;;5107673;27;45342;-75
2023/12/02 01:29:29;;;;;;;5.03;4.53;;;14.70;45.40;;;;;;5107599;27;45450;-74
2023/12/02 01:31:56;;;;;;;4.43;4.03;;;14.70;45.50;;;;;;5107375;27;45491;-74
2023/12/02 01:34:23;;;;;;;4.95;4.45;;;14.70;45.50;;;;;;5107389;27;45330;-74
2023/12/02 01:36:50;;;;;;;4.65;4.05;;;14.70;45.50;;;;;;5107445;27;45413;-74
2023/12/02 01:39:16;;;;;;;5.00;4.38;;;14.70;45.50;;;;;;5107635;27;45385;-74
2023/12/02 01:41:45;;;;;;;5.18;4.65;;;14.60;45.50;;;;;;5107773;27;47526;-74
2023/12/02 01:44:12;;;;;;;5.18;4.30;;;14.60;45.50;;;;;;5107492;27;45378;-74
2023/12/02 01:46:39;;;;;;;4.80;4.40;;;14.60;45.50;;;;;;5107405;27;45291;-74
2023/12/02 01:49:06;;;;;;;5.85;4.13;;;14.60;45.50;;;;;;5107608;27;45169;-74
2023/12/02 01:51:33;;;;;;;4.88;4.38;;;14.60;45.60;;;;;;5107073;27;45373;-74
2023/12/02 01:54:06;;;;;;;4.93;4.43;;;14.50;45.60;;;;;;5107259;27;45264;-73
2023/12/02 01:56:33;;;;;;;4.80;4.30;;;14.50;45.70;;;;;;5107383;27;45260;-73
2023/12/02 01:59:01;;;;;;;6.22;4.32;;;14.50;45.60;;;;;;5106829;27;45488;-73
2023/12/02 02:01:27;;;;;;;4.45;4.05;;;14.40;45.70;;;;;;5106377;27;45541;-74
2023/12/02 02:03:55;;;;;;;5.10;4.30;;;14.40;45.60;;;;;;5107129;27;45383;-74
2023/12/02 02:06:22;;;;;;;5.10;4.47;;;14.50;45.80;;;;;;5107376;27;45259;-74
2023/12/02 02:08:49;;;;;;;4.15;3.85;;;14.40;45.70;;;;;;5107164;27;45303;-75
2023/12/02 02:11:16;;;;;;;5.00;4.50;;;14.40;45.70;;;;;;5106896;27;46731;-75
2023/12/02 02:13:43;;;;;;;4.15;3.83;;;14.40;46.30;;;;;;5107059;27;45381;-75
2023/12/02 02:16:12;;;;;;;4.43;3.97;;;14.40;45.80;;;;;;5107226;27;45355;-74
2023/12/02 02:18:39;;;;;;;4.32;3.90;;;14.30;45.70;;;;;;5107378;27;45298;-75
2023/12/02 02:21:06;;;;;;;4.43;4.00;;;14.30;45.80;;;;;;5107245;27;45545;-74
2023/12/02 02:23:34;;;;;;;4.72;4.22;;;14.30;45.70;;;;;;5108920;27;45302;-73
2023/12/02 02:26:01;;;;;;;4.30;3.90;;;14.30;45.80;;;;;;5110451;27;45260;-74
2023/12/02 02:28:28;;;;;;;4.72;4.03;;;14.20;45.80;;;;;;5110686;27;45295;-75
2023/12/02 02:30:55;;;;;;;4.00;3.60;;;14.20;45.80;;;;;;5110277;27;47351;-74
2023/12/02 02:33:22;;;;;;;3.90;3.53;;;14.20;45.90;;;;;;5110458;27;45365;-74
2023/12/02 02:35:49;;;;;;;4.38;3.97;;;14.20;45.90;;;;;;5110512;27;45513;-74
2023/12/02 02:38:16;;;;;;;4.45;4.03;;;14.20;46.00;;;;;;5110573;27;45366;-75
2023/12/02 02:40:44;;;;;;;4.13;3.72;;;14.20;45.90;;;;;;5110098;27;46402;-75
2023/12/02 02:43:11;;;;;;;5.22;4.20;;;14.20;45.80;;;;;;5110274;27;45445;-75
2023/12/02 02:45:38;;;;;;;4.75;3.92;;;14.30;45.60;;;;;;5110143;27;45341;-75
2023/12/02 02:48:05;;;;;;;4.78;4.15;;;14.40;45.50;;;;;;5109690;27;45410;-75
2023/12/02 02:50:32;;;;;;;3.95;3.63;;;14.40;45.30;;;;;;5109811;27;45322;-74
2023/12/02 02:52:59;;;;;;;4.00;3.58;;;14.60;45.20;;;;;;5110033;27;45295;-75
2023/12/02 02:55:26;;;;;;;4.18;3.78;;;14.60;45.00;;;;;;5110247;27;45414;-75
2023/12/02 02:57:54;;;;;;;3.90;3.50;;;14.70;44.80;;;;;;5110049;27;45390;-75
2023/12/02 03:00:21;;;;;;;4.32;3.92;;;14.90;44.60;;;;;;5109693;27;46323;-76
2023/12/02 03:02:48;;;;;;;3.83;3.50;;;14.90;44.40;;;;;;5109844;27;45317;-76
2023/12/02 03:05:15;;;;;;;4.05;3.67;;;15.00;44.30;;;;;;5109940;27;45281;-76
2023/12/02 03:07:42;;;;;;;4.25;3.63;;;15.10;44.10;;;;;;5110026;27;45468;-76
2023/12/02 03:10:09;;;;;;;3.85;3.55;;;15.20;43.90;;;;;;5109467;27;46543;-76
2023/12/02 03:12:36;;;;;;;3.88;3.47;;;15.20;43.80;;;;;;5109663;27;45407;-76
2023/12/02 03:15:05;;;;;;;3.90;3.50;;;15.30;43.70;;;;;;5109782;27;45399;-74
2023/12/02 03:17:32;;;;;;;4.20;3.80;;;15.30;43.50;;;;;;5109879;27;45375;-74
2023/12/02 03:19:59;;;;;;;4.03;3.65;;;15.30;43.50;;;;;;5109427;27;45404;-76
2023/12/02 03:22:26;;;;;;;3.60;3.30;;;15.40;43.40;;;;;;5109830;27;45386;-74
2023/12/02 03:24:53;;;;;;;3.67;3.38;;;15.40;43.30;;;;;;5109588;27;45273;-74
2023/12/02 03:27:20;;;;;;;3.58;3.25;;;15.50;43.30;;;;;;5109745;27;45424;-74
2023/12/02 03:29:47;;;;;;;4.90;3.83;;;15.50;43.20;;;;;;5108476;27;46302;-74
2023/12/02 03:32:15;;;;;;;3.53;3.22;;;15.50;43.10;;;;;;5108976;27;45360;-74
2023/12/02 03:34:41;;;;;;;3.70;3.17;;;15.50;43.00;;;;;;5106272;27;45301;-74
2023/12/02 03:37:08;;;;;;;2.60;2.40;;;15.60;43.10;;;;;;5109549;27;45401;-74
2023/12/02 03:39:35;;;;;;;3.38;3.08;;;15.60;43.00;;;;;;5108955;27;46702;-74
2023/12/02 03:42:02;;;;;;;2.90;2.42;;;15.60;43.00;;;;;;5109543;27;45294;-74
2023/12/02 03:44:29;;;;;;;3.33;3.03;;;15.60;43.00;;;;;;5109337;27;45295;-74
2023/12/02 03:46:56;;;;;;;3.20;2.83;;;15.60;42.90;;;;;;5109589;27;45374;-74
2023/12/02 03:49:24;;;;;;;2.65;2.45;;;15.60;42.80;;;;;;5109047;27;45810;-74
2023/12/02 03:51:51;;;;;;;3.33;3.03;;;15.70;42.80;;;;;;5108946;27;45295;-74
2023/12/02 03:54:18;;;;;;;4.25;2.88;;;15.60;42.80;;;;;;5108834;27;45385;-76
2023/12/02 03:56:45;;;;;;;2.95;2.67;;;15.60;42.80;;;;;;5109262;27;45477;-74
2023/12/02 03:59:12;;;;;;;3.10;2.72;;;15.60;42.80;;;;;;5108568;27;45459;-74
2023/12/02 04:01:39;;;;;;;2.60;2.40;;;15.60;42.70;;;;;;5108979;27;45256;-74
2023/12/02 04:04:06;;;;;;;2.50;2.03;;;15.60;42.80;;;;;;5108978;27;45355;-74
2023/12/02 04:06:35;;;;;;;2.33;2.13;;;15.60;42.80;;;;;;5109185;27;45304;-74
2023/12/02 04:09:05;;;;;;;3.08;2.60;;;15.60;42.80;;;;;;5108632;27;46319;-74
2023/12/02 04:11:32;;;;;;;2.70;2.45;;;15.60;42.70;;;;;;5108718;27;45397;-73
2023/12/02 04:13:58;;;;;;;2.90;2.33;;;15.70;42.70;;;;;;5108049;27;45293;-74
2023/12/02 04:16:25;;;;;;;2.50;2.30;;;15.70;42.50;;;;;;5109325;27;45281;-74
2023/12/02 04:18:52;;;;;;;3.08;2.72;;;15.80;42.40;;;;;;5108604;27;45302;-74
2023/12/02 04:21:19;;;;;;;2.53;2.33;;;15.90;42.20;;;;;;5108470;27;45333;-74
2023/12/02 04:23:47;;;;;;;2.78;2.45;;;16.00;42.10;;;;;;5108808;27;45421;-74
2023/12/02 04:26:15;;;;;;;2.42;2.00;;;16.10;41.90;;;;;;5108755;27;45635;-74
2023/12/02 04:28:42;;;;;;;3.38;2.75;;;16.20;41.80;;;;;;5108457;27;45911;-74
2023/12/02 04:31:09;;;;;;;2.20;2.00;;;16.30;41.60;;;;;;5108327;27;45186;-74
2023/12/02 04:33:36;;;;;;;2.40;2.20;;;16.30;41.40;;;;;;5108488;27;45373;-74
2023/12/02 04:36:04;;;;;;;2.50;2.30;;;16.40;41.40;;;;;;5108941;27;45435;-74
2023/12/02 04:38:31;;;;;;;2.08;1.88;;;16.40;41.30;;;;;;5108038;27;45983;-76
2023/12/02 04:40:59;;;;;;;2.13;1.83;;;16.50;41.20;;;;;;5108142;27;45257;-75
2023/12/02 04:43:26;;;;;;;1.90;1.80;;;16.50;41.10;;;;;;5108375;27;45403;-75
2023/12/02 04:45:52;;;;;;;2.67;2.10;;;16.60;40.90;;;;;;5107243;27;45398;-75
2023/12/02 04:48:19;;;;;;;1.95;1.73;;;16.70;40.80;;;;;;5108163;27;46451;-75
2023/12/02 04:50:46;;;;;;;2.45;1.50;;;16.80;40.80;;;;;;5108152;27;45346;-75
2023/12/02 04:53:17;;;;;;;2.20;2.00;;;16.80;40.60;;;;;;5107979;27;45312;-75
2023/12/02 04:55:43;;;;;;;2.00;1.80;;;16.80;40.50;;;;;;5108394;27;45455;-75
2023/12/02 04:58:12;;;;;;;2.22;2.03;;;16.90;40.50;;;;;;5106831;27;45363;-75
2023/12/02 05:00:39;;;;;;;2.17;1.98;;;16.90;40.40;;;;;;5107796;27;45250;-76
2023/12/02 05:03:05;;;;;;;2.25;2.00;;;16.90;40.30;;;;;;5108088;27;45325;-76
2023/12/02 05:05:32;;;;;;;3.15;2.35;;;17.00;40.20;;;;;;5108244;27;45564;-76
2023/12/02 05:07:59;;;;;;;2.55;2.15;;;17.10;40.20;;;;;;5107677;27;45419;-76
2023/12/02 05:10:26;;;;;;;2.40;1.95;;;17.10;40.10;;;;;;5107771;27;45346;-76
2023/12/02 05:12:53;;;;;;;2.22;1.83;;;17.10;40.10;;;;;;5107940;27;45376;-76
2023/12/02 05:15:21;;;;;;;2.03;1.67;;;17.10;40.00;;;;;;5108055;27;45345;-76
2023/12/02 05:17:48;;;;;;;2.30;2.10;;;17.20;40.00;;;;;;5107477;27;46346;-76
2023/12/02 05:20:15;;;;;;;2.20;1.95;;;17.20;39.90;;;;;;5107494;27;45351;-75
2023/12/02 05:22:42;;;;;;;2.55;1.85;;;17.20;39.70;;;;;;5107769;27;45256;-76
2023/12/02 05:25:10;;;;;;;2.55;1.95;;;17.20;39.70;;;;;;5107936;27;45407;-76
2023/12/02 05:27:37;;;;;;;2.40;1.92;;;17.30;39.70;;;;;;5107547;27;45308;-75
2023/12/02 05:30:06;;;;;;;2.05;1.60;;;17.30;39.70;;;;;;5107445;27;45409;-75
2023/12/02 05:32:34;;;;;;;2.13;1.92;;;17.30;39.60;;;;;;5107667;27;45128;-75
2023/12/02 05:35:00;;;;;;;2.03;1.77;;;17.30;39.60;;;;;;5107638;27;45423;-75
2023/12/02 05:37:27;;;;;;;1.90;1.70;;;17.30;39.60;;;;;;5107321;27;45309;-75
2023/12/02 05:39:54;;;;;;;2.65;2.13;;;17.40;39.60;;;;;;5107411;27;45332;-75
2023/12/02 05:42:21;;;;;;;1.75;1.65;;;17.40;39.50;;;;;;5106799;27;45295;-75
2023/12/02 05:44:48;;;;;;;1.77;1.67;;;17.40;39.50;;;;;;5107609;27;45316;-75
2023/12/02 05:47:15;;;;;;;2.13;1.92;;;17.40;39.50;;;;;;5107201;27;46341;-75
2023/12/02 05:49:44;;;;;;;2.05;1.85;;;17.40;39.40;;;;;;5107283;27;45511;-76
2023/12/02 05:52:11;;;;;;;1.67;1.58;;;17.40;39.30;;;;;;5107326;27;45363;-76
2023/12/02 05:54:38;;;;;;;2.30;1.70;;;17.40;39.30;;;;;;5107202;27;45170;-75
2023/12/02 05:57:05;;;;;;;2.22;1.77;;;17.50;39.30;;;;;;5106628;27;45470;-76
2023/12/02 05:59:32;;;;;;;1.90;1.80;;;17.50;39.30;;;;;;5107158;27;45503;-76
2023/12/02 06:01:59;;;;;;;2.22;1.83;;;17.50;39.30;;;;;;5107292;27;45377;-76
2023/12/02 06:04:26;;;;;;;2.13;1.65;;;17.50;39.20;;;;;;5107584;27;45504;-76
2023/12/02 06:06:54;;;;;;;2.42;1.40;;;17.50;39.20;;;;;;5106941;27;46383;-76
2023/12/02 06:09:21;;;;;;;1.85;1.70;;;17.50;39.20;;;;;;5106871;27;45793;-76
2023/12/02 06:11:48;;;;;;;1.75;1.60;;;17.60;39.20;;;;;;5107073;27;45297;-76
2023/12/02 06:14:15;;;;;;;1.75;1.65;;;17.60;39.10;;;;;;5107396;27;45477;-76
2023/12/02 06:16:42;;;;;;;2.90;1.77;;;17.70;39.10;;;;;;5106819;27;45340;-76
2023/12/02 06:19:09;;;;;;;2.22;2.00;;;17.60;39.00;;;;;;5106906;27;45327;-76
2023/12/02 06:21:36;;;;;;;1.70;1.60;;;17.70;39.00;;;;;;5107171;27;45099;-76
2023/12/02 06:24:05;;;;;;;1.48;1.38;;;17.70;39.00;;;;;;5106388;27;45409;-76
2023/12/02 06:26:31;;;;;;;2.47;1.70;;;17.70;39.00;;;;;;5106151;27;45415;-76
2023/12/02 06:28:58;;;;;;;1.67;1.58;;;17.70;39.00;;;;;;5106782;27;45378;-75
2023/12/02 06:31:25;;;;;;;1.77;1.50;;;17.70;39.00;;;;;;5106706;27;45268;-76
2023/12/02 06:33:52;;;;;;;1.98;1.70;;;17.70;39.00;;;;;;5106998;27;45334;-76
2023/12/02 06:36:18;;;;;;;1.45;1.35;;;17.70;38.90;;;;;;5106660;27;47966;-76
2023/12/02 06:38:46;;;;;;;2.15;1.80;;;17.70;38.90;;;;;;5106564;27;45388;-76
2023/12/02 06:41:14;;;;;;;1.50;1.40;;;17.80;38.90;;;;;;5106741;27;45441;-76
2023/12/02 06:43:41;;;;;;;1.88;1.70;;;17.80;38.90;;;;;;5107043;27;45330;-76
2023/12/02 06:46:08;;;;;;;1.60;1.50;;;17.70;38.80;;;;;;5106618;27;46413;-74
2023/12/02 06:48:35;;;;;;;1.70;1.60;;;17.80;38.90;;;;;;5106495;27;45469;-74
2023/12/02 06:51:02;;;;;;;2.50;1.70;;;17.80;38.80;;;;;;5106660;27;45424;-76
2023/12/02 06:53:29;;;;;;;1.75;1.65;;;17.80;38.80;;;;;;5106977;27;45372;-76
2023/12/02 06:55:56;;;;;;;1.45;1.35;;;17.80;38.70;;;;;;5106520;27;46401;-76
2023/12/02 06:58:24;;;;;;;1.70;1.60;;;17.80;39.40;;;;;;5106069;27;45268;-75
2023/12/02 07:00:51;;;;;;;1.75;1.45;;;17.80;38.70;;;;;;5106439;27;45385;-75
2023/12/02 07:03:18;;;;;;;1.60;1.50;;;17.80;38.70;;;;;;5106839;27;45222;-75
2023/12/02 07:05:44;;;;;;;1.70;1.60;;;17.90;38.70;;;;;;5106264;27;45236;-75
2023/12/02 07:08:11;;;;;;;1.60;1.50;;;17.80;38.60;;;;;;5105600;27;45307;-76
2023/12/02 07:10:38;;;;;;;1.70;1.60;;;17.90;38.60;;;;;;5109762;27;45260;-76
2023/12/02 07:13:05;;;;;;;1.70;1.60;;;17.90;38.60;;;;;;5110107;27;45409;-76
2023/12/02 07:15:33;;;;;;;1.92;1.67;;;17.90;38.60;;;;;;5109739;27;45472;-76
2023/12/02 07:18:00;;;;;;;1.70;1.45;;;17.90;38.60;;;;;;5109767;27;45327;-76
2023/12/02 07:20:27;;;;;;;1.65;1.52;;;17.90;38.60;;;;;;5109792;27;45314;-75
2023/12/02 07:22:53;;;;;;;1.60;1.50;;;17.90;38.50;;;;;;5109861;27;45315;-76
2023/12/02 07:25:21;;;;;;;1.73;1.50;;;17.90;38.50;;;;;;5109476;27;45306;-76
2023/12/02 07:27:48;;;;;;;1.60;1.50;;;17.90;38.50;;;;;;5109435;27;45308;-76
2023/12/02 07:30:15;;;;;;;1.50;1.40;;;17.90;38.50;;;;;;5109463;27;45251;-76
2023/12/02 07:32:44;;;;;;;1.85;1.60;;;17.90;38.50;;;;;;5109636;27;45333;-76
2023/12/02 07:35:11;;;;;;;1.88;1.48;;;17.90;39.10;;;;;;5109332;27;46663;-76
2023/12/02 07:37:38;;;;;;;1.58;1.48;;;17.90;38.50;;;;;;5109320;27;45429;-76
2023/12/02 07:40:06;;;;;;;2.28;1.80;;;17.90;38.40;;;;;;5109523;27;45203;-77
2023/12/02 07:42:33;;;;;;;1.73;1.52;;;18.00;38.40;;;;;;5109461;27;45361;-76
2023/12/02 07:45:00;;;;;;;1.70;1.60;;;18.00;38.30;;;;;;5109236;27;47578;-76
2023/12/02 07:47:26;;;;;;;2.97;1.42;;;18.10;38.20;;;;;;5108937;27;45311;-76
2023/12/02 07:49:55;;;;;;;1.88;1.50;;;18.20;38.10;;;;;;5108697;27;45440;-76
2023/12/02 07:52:21;;;;;;;1.73;1.60;;;18.20;37.90;;;;;;5108873;27;45294;-76
2023/12/02 07:54:48;;;;;;;1.92;1.73;;;18.30;37.80;;;;;;5108972;27;46364;-76
2023/12/02 07:57:15;;;;;;;2.35;1.50;;;18.30;37.70;;;;;;5108817;27;45451;-76
2023/12/02 07:59:42;;;;;;;1.73;1.63;;;18.40;37.60;;;;;;5108901;27;45393;-76
2023/12/02 08:02:09;;;;;;;1.67;1.58;;;18.40;37.50;;;;;;5109483;27;45373;-75
2023/12/02 08:04:36;;;;;;;1.45;1.35;;;18.50;37.40;;;;;;5109201;27;45457;-75
2023/12/02 08:07:04;;;;;;;2.03;1.50;;;18.50;37.30;;;;;;5108867;27;45399;-75
2023/12/02 08:09:31;;;;;;;1.33;1.20;;;18.50;37.30;;;;;;5108891;27;45457;-75
2023/12/02 08:11:58;;;;;;;2.20;1.70;;;18.50;37.20;;;;;;5109208;27;45369;-75
2023/12/02 08:14:24;;;;;;;1.73;1.63;;;18.50;37.10;;;;;;5108850;27;46463;-75
2023/12/02 08:16:51;;;;;;;1.67;1.58;;;18.60;37.10;;;;;;5108777;27;45315;-75
2023/12/02 08:19:18;;;;;;;4.00;1.67;;;18.60;37.20;;;;;;5109069;27;45295;-75
2023/12/02 08:21:45;;;;;;;1.92;1.38;;;18.60;37.20;;;;;;5109164;27;45466;-75
2023/12/02 08:24:13;;;;;;;1.40;1.30;;;18.60;37.20;;;;;;5108787;27;46274;-75
2023/12/02 08:26:40;;;;;;;2.20;1.75;;;18.60;37.10;;;;;;5108995;27;45199;-75
2023/12/02 08:29:07;;;;;;;1.73;1.63;;;18.60;37.10;;;;;;5109014;27;45307;-75
2023/12/02 08:31:33;;;;;;;1.65;1.40;;;18.60;37.10;;;;;;5108601;27;45429;-74
2023/12/02 08:34:00;;;;;;;1.73;1.40;;;18.60;37.10;;;;;;5108042;27;46402;-75
2023/12/02 08:36:27;;;;;;;1.85;1.70;;;18.60;37.00;;;;;;5108710;27;45365;-75
2023/12/02 08:38:54;;;;;;;1.58;1.48;;;18.60;37.00;;;;;;5108448;27;45337;-75
2023/12/02 08:41:22;;;;;;;1.52;1.40;;;18.60;37.00;;;;;;5108779;27;45213;-75
2023/12/02 08:43:49;;;;;;;1.40;1.30;;;18.60;37.00;;;;;;5108441;27;46844;-76
2023/12/02 08:46:16;;;;;;;1.45;1.35;;;18.60;37.00;;;;;;5108637;27;44840;-75
2023/12/02 08:48:43;;;;;;;1.38;1.27;;;18.60;37.00;;;;;;5108709;27;45237;-75
2023/12/02 08:51:10;;;;;;;1.45;1.35;;;18.60;37.00;;;;;;5109008;27;45360;-76
2023/12/02 08:53:37;;;;;;;1.45;1.30;;;18.60;37.00;;;;;;5108384;27;46445;-75
2023/12/02 08:56:05;;;;;;;1.60;1.42;;;18.60;37.00;;;;;;5108780;27;45326;-76
2023/12/02 08:58:33;;;;;;;1.63;1.50;;;18.60;37.00;;;;;;5108403;27;45382;-76
2023/12/02 09:01:00;;;;;;;2.08;1.80;;;18.60;36.90;;;;;;5108992;27;45251;-76
2023/12/02 09:03:26;;;;;;;1.55;1.45;;;18.60;36.90;;;;;;5108462;27;45565;-75
2023/12/02 09:05:57;;;;;;;1.70;1.60;;;18.60;37.00;;;;;;5107843;27;45295;-75
2023/12/02 09:08:24;;;;;;;3.42;1.52;;;18.60;37.00;;;;;;5108488;27;45390;-75
2023/12/02 09:10:50;;;;;;;1.52;1.42;;;18.60;37.00;;;;;;5109076;27;45437;-76
2023/12/02 09:13:25;;;;;;;1.73;1.30;;;18.60;37.00;;;;;;5108420;27;45771;-75
2023/12/02 09:15:54;;;;;;;1.48;1.38;;;18.60;37.00;;;;;;5108567;27;45310;-74
2023/12/02 09:18:28;;;;;;;1.73;1.50;;;18.60;36.90;;;;;;5107768;27;45260;-75
2023/12/02 09:20:55;;;;;;;1.88;1.50;;;18.60;36.90;;;;;;5107851;27;45337;-76
2023/12/02 09:23:22;;;;;;;1.52;1.33;;;18.60;37.00;;;;;;5108302;27;45395;-76
2023/12/02 09:25:50;;;;;;;1.60;1.50;;;18.60;37.00;;;;;;5105981;27;45274;-75
2023/12/02 09:28:17;;;;;;;1.50;1.40;;;18.60;36.90;;;;;;5108464;27;45295;-75
2023/12/02 09:30:56;;;;;;;1.65;1.30;;;18.60;37.00;;;;;;5108580;27;45390;-75
2023/12/02 09:33:23;;;;;;;1.52;1.42;;;18.60;36.90;;;;;;5086332;28;45462;-76
2023/12/02 09:35:53;;;;;;;1.50;1.40;;;18.60;36.90;;;;;;5087439;27;44783;-75
2023/12/02 09:38:20;;;;;;;2.08;1.70;;;18.60;36.90;;;;;;5086891;27;45256;-75
2023/12/02 09:41:06;;;;;;;1.88;1.60;;;18.60;37.00;;;;;;5091522;27;45870;-75
2023/12/02 09:43:34;;;;;;;2.22;1.50;;;18.60;36.80;;;;;;5104743;27;46719;-75
2023/12/02 09:46:29;;;;;;;5.53;1.60;;;18.60;36.90;;;;;;5106731;27;45338;-75
2023/12/02 09:49:11;;;;;;;1.60;1.45;;;18.60;36.90;;;;;;5106872;27;45381;-74
2023/12/02 09:51:56;;;;;;;5.32;2.10;;;18.50;36.70;;;;;;5101991;27;45433;-75
2023/12/02 09:54:28;;;;;;;6.45;1.80;;;18.50;36.50;;;;;;5106495;27;45296;-74
2023/12/02 09:56:57;;;;;;;1.75;1.60;;;18.50;36.90;;;;;;5105316;27;45345;-74
2023/12/02 09:59:29;;;;;;;1.70;1.60;;;18.50;37.00;;;;;;5107104;27;45516;-76
2023/12/02 10:02:01;;;;;;;1.73;1.58;;;18.50;37.00;;;;;;5106989;27;45257;-75
2023/12/02 10:04:32;;;;;;;3.60;1.65;;;18.50;37.10;;;;;;5106785;27;45823;-74
2023/12/02 10:07:01;;;;;;;2.08;1.83;;;18.50;37.10;;;;;;5106964;27;45402;-77
2023/12/02 10:09:43;;;;;;;2.72;1.77;;;18.60;37.10;;;;;;5106928;27;45280;-76
2023/12/02 10:12:22;;;;;;;1.45;1.35;;;18.60;37.00;;;;;;5105291;27;45603;-76
2023/12/02 10:14:50;;;;;;;4.70;1.95;;;18.60;37.00;;;;;;5094390;27;45418;-76
2023/12/02 10:17:19;;;;;;;2.75;1.95;;;18.60;37.00;;;;;;5106690;27;45316;-75
2023/12/02 10:19:49;;;;;;;2.50;1.55;;;18.60;37.00;;;;;;5105792;27;45460;-76
2023/12/02 10:22:16;;;;;;;1.92;1.65;;;18.60;37.00;;;;;;5100936;27;45435;-76
2023/12/02 10:24:46;;;;;;;3.22;1.90;;;18.70;37.00;;;;;;5106031;27;45411;-75
2023/12/02 10:27:15;;;;;;;2.88;1.90;;;18.60;36.90;;;;;;5105533;27;45974;-76
2023/12/02 10:29:46;;;;;;;2.65;1.90;;;18.60;37.00;;;;;;5106567;27;45394;-75
2023/12/02 10:32:16;;;;;;;2.58;1.83;;;18.60;37.00;;;;;;5106775;27;45449;-76
2023/12/02 10:34:48;;;;;;;3.40;1.63;;;18.60;36.90;;;;;;5105822;27;46412;-76
2023/12/02 10:37:15;;;;;;;2.10;1.70;;;18.60;36.90;;;;;;5106303;27;45483;-76
2023/12/02 10:39:42;;;;;;;2.30;1.90;;;18.60;36.90;;;;;;5106225;27;45411;-76
2023/12/02 10:42:11;;;;;;;1.98;1.65;;;18.60;36.90;;;;;;5106259;27;45592;-75
2023/12/02 10:44:38;;;;;;;2.08;1.83;;;18.60;36.80;;;;;;5107563;27;46503;-77
2023/12/02 10:47:06;;;;;;;1.60;1.50;;;18.60;36.90;;;;;;5108580;27;45432;-77
2023/12/02 10:49:33;;;;;;;3.28;2.20;;;18.60;37.00;;;;;;5109675;27;45421;-76
2023/12/02 10:52:01;;;;;;;2.13;1.58;;;18.60;36.80;;;;;;5110130;27;45290;-74
2023/12/02 10:54:29;;;;;;;1.85;1.67;;;18.60;36.80;;;;;;5108188;27;46637;-76
2023/12/02 10:57:04;;;;;;;2.20;1.85;;;18.60;36.80;;;;;;5108358;27;45546;-76
2023/12/02 10:59:31;;;;;;;5.57;2.33;;;18.60;36.80;;;;;;5109377;27;45307;-75
2023/12/02 11:02:16;;;;;;;2.08;1.80;;;18.60;36.90;;;;;;5099192;27;45553;-75
2023/12/02 11:04:47;;;;;;;2.13;1.85;;;18.60;37.40;;;;;;5092806;27;45375;-76
2023/12/02 11:07:16;;;;;;;2.22;1.98;;;18.60;37.40;;;;;;5110288;27;45140;-78
2023/12/02 11:09:45;;;;;;;3.17;1.48;;;18.60;37.30;;;;;;5101657;27;45323;-72
2023/12/02 11:12:16;;;;;;;5.60;2.05;;;18.60;37.70;;;;;;5106946;27;45429;-75
2023/12/02 11:14:43;;;;;;;2.47;2.00;;;18.70;37.70;;;;;;5105926;27;46209;-76
2023/12/02 11:17:14;;;;;;;5.45;2.17;;;18.70;37.60;;;;;;5103263;27;45486;-75
2023/12/02 11:19:54;;;;;;;1.73;1.63;;;18.70;37.80;;;;;;5102292;27;45268;-74
2023/12/02 11:22:36;;;;;;;2.35;1.80;;;18.70;38.00;;;;;;5110658;27;45505;-74
2023/12/02 11:25:08;;;;;;;5.85;2.25;;;18.80;37.90;;;;;;5108995;27;46410;-75
2023/12/02 11:27:41;;;;;;;7.82;4.72;;;18.80;37.60;;;;;;5106440;27;45356;-76
2023/12/02 11:30:15;;;;;;;7.30;2.20;;;18.70;36.50;;;;;;5110273;27;45252;-76
2023/12/02 11:32:45;;;;;;;3.13;2.05;;;18.70;37.40;;;;;;5108999;27;45378;-73
2023/12/02 11:35:13;;;;;;;3.88;2.30;;;18.60;37.40;;;;;;5103154;27;46301;-74
2023/12/02 11:37:54;;;;;;;2.63;2.13;;;18.60;37.60;;;;;;5110055;27;46051;-76
2023/12/02 11:40:22;;;;;;;2.97;2.17;;;18.70;38.00;;;;;;5110539;27;45208;-75
2023/12/02 11:42:54;;;;;;;6.72;2.35;;;18.80;37.90;;;;;;5110866;27;45404;-76
2023/12/02 11:45:25;;;;;;;6.30;2.22;;;18.80;37.80;;;;;;5109976;27;46607;-75
2023/12/02 11:48:04;;;;;;;3.90;2.17;;;18.80;37.90;;;;;;5109842;27;45544;-75
2023/12/02 11:50:34;;;;;;;4.30;2.42;;;18.90;38.50;;;;;;5110391;27;45193;-75
2023/12/02 11:53:20;;;;;;;2.55;2.08;;;18.90;37.80;;;;;;5110283;27;45402;-74
2023/12/02 11:55:51;;;;;;;4.30;2.30;;;18.80;37.80;;;;;;5109944;27;45789;-74
2023/12/02 11:58:21;;;;;;;8.18;2.45;;;18.80;37.70;;;;;;5108336;27;45259;-75
2023/12/02 12:00:54;;;;;;;5.72;2.25;;;18.80;38.20;;;;;;5106917;27;45401;-76
2023/12/02 12:03:41;;;;;;;6.30;2.55;;;18.70;38.40;;;;;;5104973;27;45621;-74
2023/12/02 12:06:13;;;;;;;10.77;2.88;;;18.80;38.40;;;;;;5104201;27;45495;-74
2023/12/02 12:08:47;;;;;;;7.18;2.42;;;18.70;38.30;;;;;;5109042;27;45266;-75
2023/12/02 12:11:16;;;;;;;4.78;2.45;;;18.70;38.10;;;;;;5109437;27;45458;-76
2023/12/02 12:13:43;;;;;;;6.60;2.33;;;18.70;38.50;;;;;;5109423;27;45437;-75
2023/12/02 12:16:10;;;;;;;6.28;2.55;;;18.70;38.70;;;;;;5108950;27;46400;-76
2023/12/02 12:18:37;;;;;;;5.68;2.42;;;18.70;38.70;;;;;;5109184;27;45334;-76
2023/12/02 12:21:04;;;;;;;2.25;1.80;;;18.80;38.80;;;;;;5105534;27;45534;-76
2023/12/02 12:23:32;;;;;;;5.57;2.53;;;18.80;38.60;;;;;;5104154;27;45442;-71
2023/12/02 12:26:01;;;;;;;4.60;2.08;;;18.80;38.90;;;;;;5108934;27;45424;-71
2023/12/02 12:28:27;;;;;;;4.07;1.88;;;19.10;38.60;;;;;;5099260;27;45404;-75
2023/12/02 12:30:54;;;;;;;7.93;1.95;;;19.10;38.10;;;;;;5097490;27;45466;-74
2023/12/02 12:33:22;;;;;;;4.07;2.10;;;19.10;38.80;;;;;;5108351;27;45463;-74
2023/12/02 12:35:49;;;;;;;5.97;1.95;;;19.10;38.20;;;;;;5108724;27;46994;-75
2023/12/02 12:38:16;;;;;;;4.75;2.13;;;19.10;38.30;;;;;;5108755;27;45295;-75
2023/12/02 12:40:43;;;;;;;5.22;2.10;;;19.10;38.40;;;;;;5105198;27;45405;-74
2023/12/02 12:43:12;;;;;;;7.20;2.28;;;19.10;38.20;;;;;;5108467;27;45518;-71
2023/12/02 12:45:39;;;;;;;4.55;1.92;;;19.10;38.20;;;;;;5108626;27;46446;-70
2023/12/02 12:48:07;;;;;;;5.00;2.40;;;19.00;37.90;;;;;;5106230;27;45260;-74
2023/12/02 12:50:34;;;;;;;5.45;2.60;;;19.00;37.80;;;;;;5107301;27;45181;-71
2023/12/02 12:53:03;;;;;;;5.82;1.90;;;18.90;37.30;;;;;;5110104;27;45342;-70